Portada
METAR-TAF:

METAR-TAF

Aeropuertos :

Aeropuerto Internacional de Dakar-Yoff/Léopold Sédar Senghor

Dakar, Senegal

latitud: 14-44N, longitud: 017-30W, altitud: 27 m

Observación

El informe se hizo hace 58 minutos, a las 23:00 UTC
Viento 10 kt del noroeste
Temperatura 25°C
Humedad 83%
Presión 1014 hPa
Visibilidad: 8000 m

METAR: GOOY 192300Z 32010KT 8000 NSC 25/22 Q1014

Hora: 23:58 (23:58 UTC)

Pronóstico

El informe se hizo hace 58 minutos, a las 23:00 UTC
Pronóstico válido del 20 a las 00 UTC al 21 a las 06 UTC
Viento 10 kt del noroeste
Visibilidad 10 km o más
Nubes dispersas a una altura de 1000 ft

TAF: GOOY 192300Z 2000/2106 32010KT 9999 SCT010

Observaciones y pronósticos meteorológicos de más de 4000 aeropuertos (mensajes METAR y TAF).

Los puntos amarillos y rojos representan las estaciones disponibles.

Ponga el ratón en el punto deseado para ver el nombre de la estación.

Haga clic para ver las observaciones y los pronósticos meteorológicos.

Para cambiar el mapa : haga clic en los botones verdes con una cruz de color negro para hacer un zoom, en el botón verde con un guión para alejar o en las flechas verdes para mapas adyacentes.


METAR-TAF: